Terminal Aerodrome Forecast
Issued by NWS

Home | Current Version | Previous Version | Graphics & Text | Print | Product List | Glossary On
Versions: 1 2 3 4 5 6 7 8 9 10 11 12 13 14 15 16 17 18
000
FTUS42 KMHX 020523
TAFISO
TAF
KISO 020523Z 0206/0306 23005KT P6SM SKC
     FM020800 23005KT 4SM BR SKC
     FM021300 VRB02KT P6SM SKC
     FM021700 14005KT P6SM FEW060
     FM030000 17005KT P6SM SKC
      AMD LTD TO CLD VIS AND WIND=

USA.gov is the U.S. government's official web portal to all federal, state and local government web resources and services.